Aviation Digital Data Service (ADDS)

Output produced by METARs form (0556 UTC 19 March 2019)
found at http://www.aviationweather.gov/metar/data/
 
OEAB 190500Z 17015KT 3500 DU SKC 17/09 Q1025 NOSIG
TAF OEAB 190500Z 1906/1915 22012G24KT 8000 FEW020 
     TEMPO 1906/1915 4000 BLDU 
     PROB30 
     TEMPO 1911/1915 FEW025CB SCT020
       
OEAH 190500Z 00000KT 6000 NSC 18/03 Q1019 NOSIG
TAF OEAH 182300Z 1900/2006 VRB03KT 7000 NSC 
     BECMG 1906/1908 34012KT
       
OEBA 190500Z 12006KT 4000 DU NSC 16/02 Q1021 NOSIG
TAF OEBA 182300Z 1900/2006 18006G16KT 7000 FEW030 
     TEMPO 1900/1905 3000 DU 
     TEMPO 1910/1916 5000 BLDU FEW025CB SCT030
       
OESK 190500Z 19005KT CAVOK 11/02 Q1022
TAF OESK 182300Z 1900/2006 VRB03KT CAVOK 
     BECMG 1906/1908 16010KT
       
OERR 190500Z 24003KT CAVOK 12/04 Q1019 NOSIG
TAF OERR 182300Z 1900/2006 27006KT CAVOK 
     BECMG 1906/1908 14012KT
       
OEBH 190500Z 12004KT 3900 BLDU SKC 19/00 Q1019 NOSIG
TAF OEBH 182300Z 1900/2006 VRB03KT 7000 NSC 
     TEMPO 1900/1905 4000 DU 
     BECMG 1904/1906 12015KT 
     TEMPO 1904/1916 3500 BLDU FEW030
       
OEGS 190500Z 06005KT CAVOK 14/07 Q1021
TAF OEGS 182300Z 1900/2006 VRB03KT CAVOK 
     BECMG 1906/1908 09012KT
       
OEGT 190500Z 06002KT CAVOK 09/03 Q1018 NOSIG
TAF OEGT 182300Z 1900/2006 29006KT 9999 SCT040 
     BECMG 1906/1908 12010KT
       
OEHL 190500Z 23004KT CAVOK 10/02 Q1022 NOSIG
TAF OEHL 182300Z 1900/2006 VRB03KT 7000 NSC 
     BECMG 1906/1908 12012KT
       
OEGN 190500Z 00000KT CAVOK 28/22 Q1012 NOSIG
TAF OEGN 190500Z 1906/1915 24013KT 8000 FEW030 SCT100 
     TEMPO 1906/1915 6000 SCT030
       
OEJB 190500Z AUTO 28007KT CAVOK 17/07 Q1020 NOSIG
OEDR 190500Z 30009KT CAVOK 17/08 Q1018 NOSIG
TAF OEDR 190230Z 1906/2012 34010G20KT CAVOK 
     BECMG 1918/1920 VRB03KT
       
OEJN 190500Z 00000KT CAVOK 24/18 Q1012 NOSIG
TAF OEJN 190500Z 1906/2012 25012KT 9999 FEW040 SCT100 
     TEMPO 1906/1916 7000 SCT040 
     BECMG 1918/1920 VRB03KT
       
OEDF 190500Z 30008KT CAVOK 18/07 Q1019 NOSIG
TAF OEDF 190230Z 1906/2012 34010G20KT CAVOK 
     BECMG 1918/1920 VRB03KT
       
OEKM 190500Z 20010KT 3000 DU SKC 18/06 Q1024 NOSIG
TAF OEKM 190500Z 1906/1915 22012G24KT 8000 FEW020 
     TEMPO 1906/1915 4000 BLDU 
     PROB30 
     TEMPO 1911/1915 FEW025CB SCT020
       
OERK 190500Z 00000KT CAVOK 17/00 Q1022 NOSIG
TAF OERK 190500Z 1906/2012 05010KT 7000 NSC 
     BECMG 1918/1920 VRB03KT
       
TAF OEKK 190500Z 1906/1920 35013KT CAVOK 
     BECMG 1914/1916 06010KT
       
OENG 190500Z 12004KT 3500 DU SKC 18/M02 Q1022 NOSIG
TAF OENG 182300Z 1900/2006 VRB03KT 5000 DU SCT030 
     TEMPO 1900/1912 2000 
     BECMG 1906/1908 12010KT
       
OEMA 190500Z 08010KT CAVOK 20/M07 Q1016 NOSIG
TAF OEMA 190500Z 1906/2012 11015KT 7000 NSC 
     BECMG 1912/1914 24013KT 9999 FEW045 SCT100
       
OEPA 190500Z 21004KT CAVOK 16/07 Q1021 NOSIG
TAF OEPA 182300Z 1900/2006 VRB03KT 7000 NSC 
     BECMG 1906/1908 33012KT
       
OERF 190500Z 19002KT CAVOK 26/M01 Q1020
TAF OERF 182300Z 1900/2006 VRB03KT CAVOK 
     BECMG 1906/1908 03010KT
       
TAF OERY 182300Z 1900/2006 28006KT 7000 FEW040 
     BECMG 1906/1908 08012KT
       
OESH 190500Z 04007KT 5000 DU SKC 19/01 Q1020 NOSIG
TAF OESH 182300Z 1900/2006 VRB03KT 5000 DU SCT030 
     TEMPO 1900/1912 2000 
     BECMG 1906/1908 09012KT
       
OETB 190500Z 08006KT CAVOK 12/M02 Q1018 NOSIG
TAF OETB 190500Z 1906/1915 12010KT CAVOK 
     BECMG 1912/1914 04006KT
       
OETF 190500Z 00000KT 4000 DU NSC 17/M04 Q1020 NOSIG
TAF OETF 190500Z 1906/1924 16010KT 8000 FEW030 
     TEMPO 1906/1910 4000 DU 
     BECMG 1910/1912 20010G20KT 
     TEMPO 1910/1916 4000 BLDU TSRA FEW025CB SCT030 
     BECMG 1920/1922 VRB03KT
       
OETR 190500Z 19002KT CAVOK 10/06 Q1019
TAF OETR 182300Z 1900/2006 10006KT CAVOK 
     BECMG 1906/1908 22010KT
       
OEWD 190500Z 10010KT 4900 DU SKC 18/03 Q1019 NOSIG
TAF OEWD 182300Z 1900/2006 10006G16KT 6000 FEW040 SCT100 
     TEMPO 1900/1912 3000 DU BLDU SCT040
       
OEWJ 190500Z 35005KT 9999 FEW030 19/05 Q1012 NOSIG
TAF OEWJ 182300Z 1900/2006 05006KT CAVOK 
     BECMG 1906/1908 28015KT
       
OEYN 190500Z 14003KT CAVOK 20/11 Q1009 NOSIG
TAF OEYN 190500Z 1906/1915 13010KT 8000 NSC 
     BECMG 1910/1912 22015KT